Farmington, Washington
Current Conditions -  °F | °C
As of 4:53 PM on Monday 22 Dec 2014 (Local Time) from KPUW Reporting Station
Clear Clear  
Wind Chill: 30°   Ceiling: Unl
Heat Index: 37°   Visibility: 10mi
Dew Point: 29°   Wind: 9mph
Humidity: 73%   Direction: 280°W
Pressure: 30.28"   Gusts: NA
Location:  47.09°N, 117.04°W
Report Text: KPUW 230053Z AUTO 28008KT 10SM CLR 03/M02 A3028 RMK AO2 SLP273 T00281017
Loading
Personal Weather Stations






























Interactive Weather Map New forecast layout! Learn more

10-Day Weather Forecast

Advertisements
Track Severe Weather on mobile